createdAt,value
2023-10-11T00:00:47.524Z,99685.16
2023-10-11T00:03:17.961Z,99677.00
2023-10-11T00:05:48.282Z,99668.56
2023-10-11T00:08:17.925Z,99645.28
2023-10-11T00:10:50.327Z,99656.16
2023-10-11T00:13:18.640Z,99641.94
2023-10-11T00:15:50.967Z,99634.63
2023-10-11T00:18:20.571Z,99630.72
2023-10-11T00:20:53.884Z,99621.34
2023-10-11T00:23:23.913Z,99610.84
2023-10-11T00:25:53.333Z,99610.56
2023-10-11T00:28:24.692Z,99616.47
2023-10-11T00:30:58.032Z,99591.50
2023-10-11T00:33:38.237Z,99597.69
2023-10-11T00:36:09.357Z,99597.25
2023-10-11T00:38:48.636Z,99590.88
2023-10-11T00:41:22.036Z,99594.88
2023-10-11T00:43:53.005Z,99581.47
2023-10-11T00:46:23.850Z,99571.34
2023-10-11T00:48:56.089Z,99582.38
2023-10-11T00:51:28.390Z,99560.25
2023-10-11T00:53:57.187Z,99552.25
2023-10-11T00:56:30.180Z,99549.31
2023-10-11T00:58:58.179Z,99545.16
2023-10-11T01:01:26.415Z,99537.78
2023-10-11T01:03:55.939Z,99540.09
2023-10-11T01:06:27.178Z,99524.06
2023-10-11T01:08:55.674Z,99521.13
2023-10-11T01:11:24.386Z,99525.41
2023-10-11T01:13:53.292Z,99514.59
2023-10-11T01:16:26.027Z,99518.44
2023-10-11T01:18:54.354Z,99509.13
2023-10-11T01:21:23.562Z,99490.44
2023-10-11T01:23:51.467Z,99494.56
2023-10-11T01:26:21.269Z,99503.09
2023-10-11T01:28:50.128Z,99501.00
2023-10-11T01:31:18.853Z,99492.00
2023-10-11T01:33:50.647Z,99488.06
2023-10-11T01:36:22.429Z,99486.81
2023-10-11T01:38:51.988Z,99483.03
2023-10-11T01:41:22.928Z,99476.19
2023-10-11T01:43:52.303Z,99464.69
2023-10-11T01:46:26.197Z,99453.88
2023-10-11T01:48:54.870Z,99465.72
2023-10-11T01:51:27.653Z,99451.97
2023-10-11T01:53:58.096Z,99449.84
2023-10-11T01:56:27.155Z,99450.50
2023-10-11T01:58:57.999Z,99434.44
2023-10-11T02:01:28.397Z,99425.41
2023-10-11T02:04:00.294Z,99414.56
2023-10-11T02:06:33.799Z,99406.22
2023-10-11T02:09:03.952Z,99391.78
2023-10-11T02:11:32.032Z,99395.22
2023-10-11T02:14:00.389Z,99393.16
2023-10-11T02:16:32.016Z,99390.88
2023-10-11T02:19:01.088Z,99382.00
2023-10-11T02:21:30.766Z,99374.44
2023-10-11T02:24:00.463Z,99371.81
2023-10-11T02:26:32.709Z,99373.31
2023-10-11T02:29:02.257Z,99367.06
2023-10-11T02:31:34.735Z,99360.16
2023-10-11T02:34:14.362Z,99358.19
2023-10-11T02:36:44.472Z,99350.97
2023-10-11T02:39:19.267Z,99351.28
2023-10-11T02:41:51.153Z,99344.41
2023-10-11T02:44:24.115Z,99348.66
2023-10-11T02:46:52.444Z,99345.06
2023-10-11T02:49:23.265Z,99340.63
2023-10-11T02:51:56.734Z,99337.00
2023-10-11T02:56:47.922Z,99328.63
2023-10-11T02:59:20.531Z,99316.97
2023-10-11T03:02:00.610Z,99314.97
2023-10-11T03:04:30.849Z,99302.50
2023-10-11T03:07:01.450Z,99306.75
2023-10-11T03:09:31.286Z,99302.63
2023-10-11T03:12:06.903Z,99285.56
2023-10-11T03:14:42.466Z,99289.47
2023-10-11T03:17:14.646Z,99272.06
2023-10-11T03:19:44.551Z,99255.44
2023-10-11T03:22:20.536Z,99258.75
2023-10-11T03:24:54.973Z,99262.50
2023-10-11T03:27:25.376Z,99261.50
2023-10-11T03:29:56.501Z,99267.59
2023-10-11T03:32:26.491Z,99257.75
2023-10-11T03:34:54.817Z,99254.78
2023-10-11T03:37:22.722Z,99240.13
2023-10-11T03:39:57.865Z,99237.16
2023-10-11T03:42:41.496Z,99230.41
2023-10-11T03:45:10.087Z,99217.56
2023-10-11T03:47:39.440Z,99227.28
2023-10-11T03:50:13.045Z,99233.34
2023-10-11T03:52:41.584Z,99228.56
2023-10-11T03:55:11.495Z,99217.88
2023-10-11T03:57:43.209Z,99228.34
2023-10-11T04:00:26.077Z,99227.66
2023-10-11T04:02:58.329Z,99222.72
2023-10-11T04:05:29.980Z,99221.19
2023-10-11T04:07:59.292Z,99204.44
2023-10-11T04:10:40.727Z,99212.03
2023-10-11T04:13:15.676Z,99187.97
2023-10-11T04:15:43.794Z,99207.22
2023-10-11T04:18:17.068Z,99188.94
2023-10-11T04:20:54.787Z,99194.69
2023-10-11T04:23:25.968Z,99188.25
2023-10-11T04:25:56.577Z,99190.88
2023-10-11T04:28:24.788Z,99191.88
2023-10-11T04:31:13.735Z,99177.72
2023-10-11T04:33:45.654Z,99163.09
2023-10-11T04:36:13.588Z,99167.19
2023-10-11T04:38:48.547Z,99163.22
2023-10-11T04:41:18.200Z,99156.31
2023-10-11T04:43:52.205Z,99165.16
2023-10-11T04:46:23.306Z,99159.06
2023-10-11T04:48:51.277Z,99165.78
2023-10-11T04:51:25.014Z,99156.53
2023-10-11T04:53:59.965Z,99154.06
2023-10-11T04:56:47.230Z,99148.81
2023-10-11T04:59:21.673Z,99149.63
2023-10-11T05:02:03.882Z,99141.56
2023-10-11T05:04:34.142Z,99146.00
2023-10-11T05:07:09.135Z,99144.53
2023-10-11T05:09:41.900Z,99142.56
2023-10-11T05:12:13.944Z,99133.47
2023-10-11T05:14:57.735Z,99142.56
2023-10-11T05:17:35.194Z,99127.03
2023-10-11T05:20:20.455Z,99129.50
2023-10-11T05:22:53.634Z,99128.03
2023-10-11T05:25:39.324Z,99126.50
2023-10-11T05:28:27.888Z,99112.53
2023-10-11T05:31:20.508Z,99117.44
2023-10-11T05:34:13.922Z,99124.88
2023-10-11T05:36:58.628Z,99121.59
2023-10-11T05:39:43.863Z,99123.59
2023-10-11T05:42:29.387Z,99093.44
2023-10-11T05:45:14.762Z,99092.59
2023-10-11T05:48:01.663Z,99087.34
2023-10-11T05:50:55.592Z,99097.53
2023-10-11T05:53:25.427Z,99098.53
2023-10-11T05:55:54.492Z,99095.53
2023-10-11T05:58:23.013Z,99093.56
2023-10-11T06:00:54.789Z,99096.63
2023-10-11T06:03:30.170Z,99100.09
2023-10-11T06:05:58.607Z,99092.03
2023-10-11T06:08:32.468Z,99085.13
2023-10-11T06:11:00.348Z,99083.47
2023-10-11T06:13:28.174Z,99086.75
2023-10-11T06:16:02.144Z,99064.03
2023-10-11T06:18:40.775Z,99072.13
2023-10-11T06:21:20.260Z,99069.50
2023-10-11T06:23:49.851Z,99067.84
2023-10-11T06:26:50.756Z,99059.31
2023-10-11T06:29:20.144Z,99067.41
2023-10-11T06:31:47.949Z,99058.84
2023-10-11T06:34:24.264Z,99065.91
2023-10-11T06:36:52.821Z,99049.47
2023-10-11T06:39:56.555Z,99052.75
2023-10-11T06:42:24.812Z,99039.13
2023-10-11T06:44:55.407Z,99058.00
2023-10-11T06:47:24.514Z,99044.22
2023-10-11T06:49:56.470Z,99036.31
2023-10-11T06:52:27.660Z,99037.75
2023-10-11T06:55:15.494Z,99020.16
2023-10-11T06:57:46.612Z,99019.16
2023-10-11T07:00:24.548Z,99013.03
2023-10-11T07:02:55.015Z,99005.13
2023-10-11T07:05:27.135Z,99002.69
2023-10-11T07:07:56.656Z,98996.63
2023-10-11T07:10:31.094Z,98992.44
2023-10-11T07:13:06.397Z,98982.53
2023-10-11T07:15:39.938Z,98982.19
2023-10-11T07:18:11.776Z,98981.34
2023-10-11T07:21:08.422Z,98973.28
2023-10-11T07:23:47.051Z,98967.19
2023-10-11T07:26:40.850Z,98958.13
2023-10-11T07:29:09.385Z,98958.13
2023-10-11T07:31:39.391Z,98957.38
2023-10-11T07:34:10.634Z,98952.72
2023-10-11T07:36:41.525Z,98937.09
2023-10-11T07:39:20.742Z,98939.19
2023-10-11T07:41:49.919Z,98927.66
2023-10-11T07:44:19.640Z,98936.19
2023-10-11T07:46:48.226Z,98927.31
2023-10-11T07:49:17.488Z,98926.94
2023-10-11T07:51:46.883Z,98912.09
2023-10-11T07:54:21.146Z,98921.47
2023-10-11T07:56:56.904Z,98912.38
2023-10-11T07:59:27.895Z,98907.53
2023-10-11T08:01:57.809Z,98905.91
2023-10-11T08:04:29.431Z,98896.00
2023-10-11T08:07:02.349Z,98891.34
2023-10-11T08:09:46.372Z,98887.38
2023-10-11T08:12:15.924Z,98897.53
2023-10-11T08:14:46.453Z,98893.06
2023-10-11T08:17:15.263Z,98882.09
2023-10-11T08:19:45.920Z,98892.00
2023-10-11T08:22:16.626Z,98881.44
2023-10-11T08:24:49.901Z,98884.09
2023-10-11T08:27:24.293Z,98876.00
2023-10-11T08:30:03.539Z,98873.34
2023-10-11T08:32:33.062Z,98880.69
2023-10-11T08:35:00.957Z,98867.34
2023-10-11T08:37:33.176Z,98861.88
2023-10-11T08:40:03.118Z,98871.88
2023-10-11T08:42:33.501Z,98866.03
2023-10-11T08:45:01.722Z,98874.78
2023-10-11T08:47:31.032Z,98873.75
2023-10-11T08:50:00.637Z,98869.31
2023-10-11T08:52:30.260Z,98853.47
2023-10-11T08:55:00.062Z,98861.59
2023-10-11T08:57:33.017Z,98859.75
2023-10-11T09:00:01.341Z,98871.94
2023-10-11T09:02:30.816Z,98856.91
2023-10-11T09:05:05.404Z,98844.56
2023-10-11T09:07:46.256Z,98840.91
2023-10-11T09:10:27.058Z,98848.91
2023-10-11T09:12:58.426Z,98844.53
2023-10-11T09:15:41.881Z,98846.03
2023-10-11T09:18:16.340Z,98841.00
2023-10-11T09:20:50.925Z,98835.97
2023-10-11T09:23:22.211Z,98834.59
2023-10-11T09:25:59.686Z,98826.03
2023-10-11T09:28:28.395Z,98828.88
2023-10-11T09:31:13.407Z,98835.78
2023-10-11T09:33:42.800Z,98837.16
2023-10-11T09:36:13.556Z,98836.53
2023-10-11T09:38:43.012Z,98841.00
2023-10-11T09:41:11.990Z,98837.34
2023-10-11T09:43:45.109Z,98829.63
2023-10-11T09:46:14.764Z,98829.81
2023-10-11T09:48:44.039Z,98814.19
2023-10-11T09:51:15.590Z,98825.97
2023-10-11T09:53:53.488Z,98811.81
2023-10-11T09:56:38.607Z,98813.63
2023-10-11T09:59:23.587Z,98807.50
2023-10-11T10:01:58.694Z,98809.97
2023-10-11T10:04:56.448Z,98799.03
2023-10-11T10:07:27.207Z,98803.31
2023-10-11T10:10:01.410Z,98803.13
2023-10-11T10:12:35.158Z,98779.38
2023-10-11T10:15:08.370Z,98789.34
2023-10-11T10:17:36.918Z,98781.81
2023-10-11T10:20:43.783Z,98778.81
2023-10-11T10:23:27.357Z,98787.56
2023-10-11T10:26:46.707Z,98790.06
2023-10-11T10:29:16.952Z,98786.66
2023-10-11T10:32:09.862Z,98771.28
2023-10-11T10:34:43.488Z,98762.78
2023-10-11T10:37:49.211Z,98774.16
2023-10-11T10:40:20.125Z,98756.28
2023-10-11T10:43:28.963Z,98752.25
2023-10-11T10:46:01.128Z,98755.13
2023-10-11T10:48:32.376Z,98751.06
2023-10-11T10:51:05.470Z,98750.28
2023-10-11T10:53:39.438Z,98746.03
2023-10-11T10:56:07.504Z,98739.53
2023-10-11T10:58:35.816Z,98738.28
2023-10-11T11:01:05.663Z,98726.06
2023-10-11T11:03:34.294Z,98716.09
2023-10-11T11:06:05.061Z,98708.13
2023-10-11T11:08:33.267Z,98695.53
2023-10-11T11:11:20.368Z,98702.00
2023-10-11T11:13:51.036Z,98691.84
2023-10-11T11:16:22.641Z,98688.38
2023-10-11T11:18:50.633Z,98675.00
2023-10-11T11:21:21.384Z,98675.63
2023-10-11T11:23:51.918Z,98666.66
2023-10-11T11:28:52.484Z,98639.88
2023-10-11T11:31:32.065Z,98641.53
2023-10-11T11:34:14.056Z,98635.69
2023-10-11T11:36:43.715Z,98625.94
2023-10-11T11:39:28.280Z,98608.72
2023-10-11T11:41:58.509Z,98611.75
2023-10-11T11:44:28.919Z,98612.34
2023-10-11T11:46:57.205Z,98615.41
2023-10-11T11:49:26.436Z,98603.22
2023-10-11T11:51:54.368Z,98604.09
2023-10-11T11:54:23.297Z,98589.84
2023-10-11T11:56:55.676Z,98600.22
2023-10-11T11:59:24.190Z,98597.81
2023-10-11T12:01:57.614Z,98590.66
2023-10-11T12:04:30.437Z,98577.06
2023-10-11T12:07:00.736Z,98616.50
2023-10-11T12:09:35.501Z,98589.06
2023-10-11T12:12:10.835Z,98574.22
2023-10-11T12:14:39.793Z,98586.00
2023-10-11T12:17:10.791Z,98580.72
2023-10-11T12:19:41.950Z,98577.06
2023-10-11T12:22:09.933Z,98571.16
2023-10-11T12:24:45.548Z,98575.63
2023-10-11T12:27:14.107Z,98574.00
2023-10-11T12:29:56.155Z,98571.97
2023-10-11T12:32:34.678Z,98578.69
2023-10-11T12:35:07.278Z,98556.72
2023-10-11T12:37:36.339Z,98574.59
2023-10-11T12:40:13.008Z,98573.75
2023-10-11T12:42:41.197Z,98552.00
2023-10-11T12:45:09.645Z,98558.75
2023-10-11T12:47:37.597Z,98557.91
2023-10-11T12:50:07.611Z,98564.00
2023-10-11T12:52:39.223Z,98573.75
2023-10-11T12:55:08.153Z,98570.28
2023-10-11T12:57:39.395Z,98565.00
2023-10-11T13:00:30.324Z,98565.41
2023-10-11T13:03:07.476Z,98578.41
2023-10-11T13:05:37.877Z,98569.25
2023-10-11T13:08:06.042Z,98570.22
2023-10-11T13:10:35.398Z,98571.78
2023-10-11T13:13:10.197Z,98576.22
2023-10-11T13:15:39.946Z,98557.47
2023-10-11T13:18:11.491Z,98557.78
2023-10-11T13:20:43.475Z,98583.69
2023-10-11T13:23:12.476Z,98567.41
2023-10-11T13:25:40.364Z,98585.56
2023-10-11T13:28:08.536Z,98578.03
2023-10-11T13:30:38.021Z,98583.81
2023-10-11T13:33:10.931Z,98572.09
2023-10-11T13:35:40.433Z,98578.78
2023-10-11T13:38:13.300Z,98578.34
2023-10-11T13:40:42.051Z,98583.81
2023-10-11T13:43:10.242Z,98589.25
2023-10-11T13:45:41.750Z,98575.03
2023-10-11T13:48:15.112Z,98590.66
2023-10-11T13:50:50.566Z,98584.38
2023-10-11T13:53:21.879Z,98585.59
2023-10-11T13:55:52.854Z,98588.59
2023-10-11T13:58:21.270Z,98584.72
2023-10-11T14:01:15.189Z,98599.03
2023-10-11T14:03:57.465Z,98602.06
2023-10-11T14:06:43.425Z,98601.22
2023-10-11T14:09:18.865Z,98623.25
2023-10-11T14:11:49.021Z,98596.03
2023-10-11T14:14:21.485Z,98601.50
2023-10-11T14:16:50.324Z,98593.31
2023-10-11T14:19:18.835Z,98607.44
2023-10-11T14:21:49.333Z,98601.72
2023-10-11T14:24:19.429Z,98601.06
2023-10-11T14:26:48.890Z,98606.72
2023-10-11T14:29:17.600Z,98605.69
2023-10-11T14:31:45.737Z,98597.94
2023-10-11T14:34:13.598Z,98602.38
2023-10-11T14:36:42.848Z,98608.56
2023-10-11T14:39:20.312Z,98608.16
2023-10-11T14:41:52.242Z,98609.50
2023-10-11T14:44:20.530Z,98611.63
2023-10-11T14:46:50.468Z,98611.25
2023-10-11T14:49:22.802Z,98615.81
2023-10-11T14:51:51.141Z,98623.69
2023-10-11T14:54:20.557Z,98619.22
2023-10-11T14:56:48.811Z,98627.25
2023-10-11T14:59:16.650Z,98625.78
2023-10-11T15:01:44.604Z,98636.47
2023-10-11T15:04:12.716Z,98631.34
2023-10-11T15:06:46.615Z,98639.78
2023-10-11T15:09:17.880Z,98625.19
2023-10-11T15:11:49.143Z,98641.69
2023-10-11T15:14:17.309Z,98661.06
2023-10-11T15:16:48.422Z,98642.84
2023-10-11T15:19:17.094Z,98640.94
2023-10-11T15:21:45.482Z,98652.72
2023-10-11T15:24:14.991Z,98654.56
2023-10-11T15:26:42.963Z,98661.50
2023-10-11T15:29:12.150Z,98666.31
2023-10-11T15:31:40.079Z,98664.41
2023-10-11T15:34:09.434Z,98672.00
2023-10-11T15:36:38.108Z,98672.16
2023-10-11T15:39:09.175Z,98661.53
2023-10-11T15:41:37.148Z,98674.03
2023-10-11T15:44:05.405Z,98677.84
2023-10-11T15:46:35.029Z,98674.75
2023-10-11T15:49:03.106Z,98683.50
2023-10-11T15:51:31.080Z,98681.22
2023-10-11T15:53:59.670Z,98682.41
2023-10-11T15:56:27.696Z,98685.38
2023-10-11T15:58:57.760Z,98702.47
2023-10-11T16:01:26.020Z,98709.25
2023-10-11T16:03:57.112Z,98716.38
2023-10-11T16:06:26.908Z,98713.09
2023-10-11T16:08:54.938Z,98726.28
2023-10-11T16:11:22.776Z,98718.59
2023-10-11T16:13:50.759Z,98724.19
2023-10-11T16:16:18.986Z,98725.81
2023-10-11T16:18:48.140Z,98724.72
2023-10-11T16:21:18.218Z,98724.06
2023-10-11T16:23:52.969Z,98722.78
2023-10-11T16:26:20.998Z,98736.72
2023-10-11T16:28:49.601Z,98736.59
2023-10-11T16:31:18.347Z,98734.13
2023-10-11T16:33:46.799Z,98733.34
2023-10-11T16:36:15.797Z,98732.00
2023-10-11T16:38:45.568Z,98734.00
2023-10-11T16:41:14.036Z,98733.38
2023-10-11T16:43:42.821Z,98727.66
2023-10-11T16:48:42.252Z,98727.66
2023-10-11T16:51:12.545Z,98727.84
2023-10-11T16:53:40.804Z,98724.56
2023-10-11T16:56:13.963Z,98716.88
2023-10-11T16:58:42.590Z,98715.25
2023-10-11T17:01:11.075Z,98716.25
2023-10-11T17:03:40.570Z,98714.75
2023-10-11T17:06:08.994Z,98721.63
2023-10-11T17:08:36.951Z,98724.91
2023-10-11T17:11:11.080Z,98721.00
2023-10-11T17:13:40.893Z,98727.09
2023-10-11T17:16:09.273Z,98729.38
2023-10-11T17:18:37.477Z,98720.22
2023-10-11T17:21:07.569Z,98720.38
2023-10-11T17:23:35.535Z,98717.25
2023-10-11T17:26:14.286Z,98712.16
2023-10-11T17:28:45.820Z,98724.19
2023-10-11T17:31:14.742Z,98713.81
2023-10-11T17:33:44.482Z,98714.78
2023-10-11T17:36:13.363Z,98722.53
2023-10-11T17:38:41.486Z,98716.47
2023-10-11T17:41:10.779Z,98720.19
2023-10-11T17:43:39.603Z,98731.50
2023-10-11T17:46:09.467Z,98726.59
2023-10-11T17:48:37.749Z,98712.38
2023-10-11T17:51:07.455Z,98729.06
2023-10-11T17:53:36.971Z,98711.22
2023-10-11T17:56:05.584Z,98722.69
2023-10-11T17:58:35.054Z,98722.88
2023-10-11T18:01:03.399Z,98732.84
2023-10-11T18:03:32.794Z,98728.59
2023-10-11T18:06:00.689Z,98738.09
2023-10-11T18:08:28.850Z,98728.94
2023-10-11T18:11:00.039Z,98725.03
2023-10-11T18:13:27.984Z,98732.88
2023-10-11T18:15:55.840Z,98728.94
2023-10-11T18:18:23.854Z,98723.06
2023-10-11T18:20:53.700Z,98729.25
2023-10-11T18:23:22.872Z,98734.19
2023-10-11T18:25:50.838Z,98734.84
2023-10-11T18:28:18.665Z,98726.00
2023-10-11T18:30:48.084Z,98738.44
2023-10-11T18:33:16.036Z,98731.59
2023-10-11T18:35:44.981Z,98733.06
2023-10-11T18:38:14.502Z,98736.81
2023-10-11T18:40:46.784Z,98730.44
2023-10-11T18:43:15.004Z,98726.50
2023-10-11T18:45:42.979Z,98730.94
2023-10-11T18:48:10.965Z,98732.91
2023-10-11T18:50:38.892Z,98731.09
2023-10-11T18:53:06.695Z,98729.59
2023-10-11T18:55:35.935Z,98727.31
2023-10-11T18:58:03.890Z,98728.31
2023-10-11T19:00:34.655Z,98723.56
2023-10-11T19:03:03.754Z,98710.47
2023-10-11T19:05:31.634Z,98714.22
2023-10-11T19:08:00.164Z,98698.34
2023-10-11T19:10:29.822Z,98693.94
2023-10-11T19:12:59.724Z,98708.34
2023-10-11T19:15:30.549Z,98704.25
2023-10-11T19:17:58.985Z,98696.41
2023-10-11T19:20:30.988Z,98707.19
2023-10-11T19:23:02.039Z,98706.53
2023-10-11T19:25:30.125Z,98712.94
2023-10-11T19:28:00.382Z,98712.44
2023-10-11T19:30:28.738Z,98711.78
2023-10-11T19:32:57.191Z,98718.16
2023-10-11T19:35:25.852Z,98717.16
2023-10-11T19:37:54.387Z,98713.25
2023-10-11T19:40:26.136Z,98707.84
2023-10-11T19:42:55.313Z,98711.78
2023-10-11T19:45:25.763Z,98717.03
2023-10-11T19:47:54.526Z,98698.84
2023-10-11T19:50:23.743Z,98714.41
2023-10-11T19:52:53.091Z,98704.75
2023-10-11T19:55:23.547Z,98694.13
2023-10-11T19:57:53.709Z,98698.84
2023-10-11T20:00:23.096Z,98696.06
2023-10-11T20:02:57.288Z,98687.38
2023-10-11T20:05:25.709Z,98691.16
2023-10-11T20:07:54.522Z,98691.66
2023-10-11T20:10:22.896Z,98702.78
2023-10-11T20:12:53.029Z,98687.56
2023-10-11T20:15:23.133Z,98700.81
2023-10-11T20:17:53.672Z,98703.59
2023-10-11T20:20:22.810Z,98700.47
2023-10-11T20:22:52.168Z,98707.84
2023-10-11T20:25:22.034Z,98709.31
2023-10-11T20:27:51.613Z,98697.38
2023-10-11T20:30:20.953Z,98696.56
2023-10-11T20:32:49.960Z,98691.34
2023-10-11T20:35:24.836Z,98691.97
2023-10-11T20:37:53.891Z,98680.50
2023-10-11T20:40:24.147Z,98676.28
2023-10-11T20:42:54.641Z,98670.03
2023-10-11T20:45:24.353Z,98677.25
2023-10-11T20:47:54.790Z,98689.53
2023-10-11T20:50:30.062Z,98692.31
2023-10-11T20:53:01.849Z,98676.44
2023-10-11T20:55:32.257Z,98682.19
2023-10-11T20:58:19.507Z,98673.19
2023-10-11T21:00:51.048Z,98669.25
2023-10-11T21:03:21.276Z,98661.56
2023-10-11T21:05:52.464Z,98655.34
2023-10-11T21:08:26.006Z,98651.25
2023-10-11T21:10:54.197Z,98647.19
2023-10-11T21:13:23.564Z,98638.50
2023-10-11T21:15:54.041Z,98631.13
2023-10-11T21:18:22.171Z,98628.19
2023-10-11T21:20:53.788Z,98631.81
2023-10-11T21:23:22.921Z,98631.97
2023-10-11T21:25:56.505Z,98619.03
2023-10-11T21:28:25.136Z,98617.88
2023-10-11T21:30:53.198Z,98609.03
2023-10-11T21:33:21.225Z,98615.09
2023-10-11T21:35:49.068Z,98616.88
2023-10-11T21:38:18.353Z,98597.78
2023-10-11T21:40:46.736Z,98607.09
2023-10-11T21:43:14.698Z,98603.66
2023-10-11T21:45:43.068Z,98588.94
2023-10-11T21:48:12.102Z,98590.25
2023-10-11T21:50:42.741Z,98581.75
2023-10-11T21:53:11.574Z,98586.66
2023-10-11T21:55:42.444Z,98589.59
2023-10-11T21:58:10.640Z,98563.41
2023-10-11T22:00:49.697Z,98560.13
2023-10-11T22:03:20.717Z,98577.34
2023-10-11T22:05:51.566Z,98562.25
2023-10-11T22:08:20.802Z,98563.75
2023-10-11T22:10:50.242Z,98559.81
2023-10-11T22:13:21.536Z,98563.91
2023-10-11T22:15:52.851Z,98545.44
2023-10-11T22:18:21.887Z,98553.44
2023-10-11T22:20:50.706Z,98547.88
2023-10-11T22:23:21.002Z,98555.91
2023-10-11T22:25:51.446Z,98539.38
2023-10-11T22:28:19.682Z,98535.31
2023-10-11T22:30:48.964Z,98521.38
2023-10-11T22:33:23.038Z,98531.84
2023-10-11T22:35:52.429Z,98522.03
2023-10-11T22:38:21.822Z,98511.75
2023-10-11T22:40:52.523Z,98531.69
2023-10-11T22:43:29.084Z,98527.13
2023-10-11T22:45:58.792Z,98525.78
2023-10-11T22:48:28.478Z,98525.47
2023-10-11T22:50:56.699Z,98521.06
2023-10-11T22:53:25.137Z,98527.41
2023-10-11T22:55:54.576Z,98518.22
2023-10-11T22:58:22.649Z,98516.44
2023-10-11T23:00:50.657Z,98525.28
2023-10-11T23:03:19.253Z,98513.38
2023-10-11T23:05:47.355Z,98520.88
2023-10-11T23:08:15.197Z,98510.59
2023-10-11T23:10:46.479Z,98503.91
2023-10-11T23:13:17.240Z,98493.94
2023-10-11T23:15:53.416Z,98497.16
2023-10-11T23:18:27.298Z,98502.41
2023-10-11T23:21:02.853Z,98498.34
2023-10-11T23:23:40.876Z,98492.75
2023-10-11T23:26:10.935Z,98483.75
2023-10-11T23:28:40.358Z,98488.81
2023-10-11T23:31:10.830Z,98487.84
2023-10-11T23:33:49.998Z,98482.91
2023-10-11T23:36:23.879Z,98475.56
2023-10-11T23:38:52.717Z,98489.44
2023-10-11T23:41:22.033Z,98487.47
2023-10-11T23:44:00.549Z,98485.03
2023-10-11T23:46:36.526Z,98502.03
2023-10-11T23:49:09.094Z,98485.34
2023-10-11T23:51:40.729Z,98480.91
2023-10-11T23:56:24.695Z,98493.66
2023-10-11T23:58:58.745Z,98461.28
